createdAt,value
2022-09-28T00:03:31.135Z,7.82
2022-09-28T00:08:36.947Z,8.98
2022-09-28T00:13:43.087Z,7.03
2022-09-28T00:18:51.511Z,6.35
2022-09-28T00:24:10.204Z,7.45
2022-09-28T00:29:24.829Z,5.78
2022-09-28T00:34:34.815Z,6.90
2022-09-28T00:39:41.522Z,6.90
2022-09-28T00:44:49.796Z,4.78
2022-09-28T00:50:00.389Z,6.03
2022-09-28T00:55:07.376Z,7.28
2022-09-28T01:00:14.000Z,4.80
2022-09-28T01:05:22.329Z,4.93
2022-09-28T01:10:27.572Z,5.53
2022-09-28T01:15:33.443Z,5.32
2022-09-28T01:20:54.864Z,5.25
2022-09-28T01:26:19.536Z,7.43
2022-09-28T01:31:26.757Z,11.70
2022-09-28T01:36:35.077Z,8.07
2022-09-28T01:41:43.740Z,5.28
2022-09-28T01:46:50.392Z,5.22
2022-09-28T01:52:01.450Z,6.18
2022-09-28T01:57:12.801Z,5.43
2022-09-28T02:02:20.459Z,4.60
2022-09-28T02:07:29.548Z,5.00
2022-09-28T02:12:39.109Z,6.00
2022-09-28T02:17:44.365Z,4.97
2022-09-28T02:22:51.547Z,4.45
2022-09-28T02:28:02.514Z,8.10
2022-09-28T02:33:12.468Z,5.38
2022-09-28T02:38:18.648Z,9.52
2022-09-28T02:43:27.818Z,6.97
2022-09-28T02:48:55.702Z,6.53
2022-09-28T02:54:22.021Z,10.70
2022-09-28T02:59:57.052Z,7.38
2022-09-28T03:05:09.841Z,5.93
2022-09-28T03:10:19.747Z,5.80
2022-09-28T03:15:29.220Z,5.22
2022-09-28T03:20:38.486Z,6.82
2022-09-28T03:25:43.627Z,6.05
2022-09-28T03:30:56.766Z,5.82
2022-09-28T03:36:03.164Z,6.25
2022-09-28T03:41:08.570Z,12.15
2022-09-28T03:46:16.282Z,5.60
2022-09-28T03:51:21.376Z,6.80
2022-09-28T03:56:26.426Z,8.35
2022-09-28T04:01:34.180Z,10.05
2022-09-28T04:12:02.668Z,7.95
2022-09-28T04:17:11.392Z,5.32
2022-09-28T04:22:29.803Z,5.82
2022-09-28T04:27:47.152Z,6.53
2022-09-28T04:32:54.787Z,7.53
2022-09-28T04:37:59.774Z,3.67
2022-09-28T04:43:04.889Z,3.55
2022-09-28T04:48:12.679Z,5.57
2022-09-28T04:53:17.672Z,7.80
2022-09-28T04:58:23.498Z,3.83
2022-09-28T05:03:31.710Z,4.25
2022-09-28T05:08:37.595Z,4.82
2022-09-28T05:13:45.482Z,4.97
2022-09-28T05:18:53.492Z,5.55
2022-09-28T05:23:59.050Z,5.78
2022-09-28T05:29:04.178Z,4.97
2022-09-28T05:34:11.784Z,6.30
2022-09-28T05:39:19.127Z,7.57
2022-09-28T05:44:24.853Z,8.23
2022-09-28T05:49:32.732Z,9.18
2022-09-28T05:54:37.792Z,9.68
2022-09-28T05:59:45.677Z,8.50
2022-09-28T06:04:54.099Z,6.65
2022-09-28T06:10:02.438Z,8.25
2022-09-28T06:15:08.549Z,8.70
2022-09-28T06:20:16.676Z,7.88
2022-09-28T06:25:21.824Z,12.77
2022-09-28T06:30:27.678Z,6.10
2022-09-28T06:35:35.828Z,7.70
2022-09-28T06:40:41.565Z,10.30
2022-09-28T06:45:47.436Z,5.75
2022-09-28T06:50:55.107Z,4.93
2022-09-28T07:01:05.877Z,9.45
2022-09-28T07:06:15.752Z,5.50
2022-09-28T07:11:21.384Z,6.15
2022-09-28T07:16:33.712Z,4.65
2022-09-28T07:22:03.681Z,3.70
2022-09-28T07:27:10.193Z,2.83
2022-09-28T07:32:15.170Z,2.60
2022-09-28T07:37:24.457Z,1.88
2022-09-28T07:42:30.932Z,1.67
2022-09-28T07:47:35.972Z,3.15
2022-09-28T07:52:44.517Z,4.43
2022-09-28T07:57:49.516Z,4.38
2022-09-28T08:02:54.491Z,5.35
2022-09-28T08:08:02.394Z,1.85
2022-09-28T08:13:08.740Z,3.22
2022-09-28T08:18:14.104Z,3.78
2022-09-28T08:23:22.101Z,1.98
2022-09-28T08:28:27.499Z,2.80
2022-09-28T08:33:32.657Z,2.45
2022-09-28T08:38:40.282Z,2.75
2022-09-28T08:43:57.419Z,2.47
2022-09-28T08:49:24.156Z,2.60
2022-09-28T08:54:39.018Z,2.53
2022-09-28T08:59:51.655Z,4.80
2022-09-28T09:04:57.261Z,1.67
2022-09-28T09:10:11.664Z,3.00
2022-09-28T09:15:26.707Z,1.33
2022-09-28T09:20:39.258Z,2.42
2022-09-28T09:25:55.003Z,2.05
2022-09-28T09:31:09.648Z,3.63
2022-09-28T09:36:25.118Z,1.75
2022-09-28T09:41:43.626Z,6.88
2022-09-28T09:46:51.336Z,3.67
2022-09-28T09:52:00.478Z,4.50
2022-09-28T09:57:11.549Z,3.92
2022-09-28T10:02:24.162Z,3.70
2022-09-28T10:07:33.664Z,2.58
2022-09-28T10:12:41.223Z,1.80
2022-09-28T10:17:46.251Z,1.88
2022-09-28T10:22:51.435Z,2.20
2022-09-28T10:28:00.610Z,1.35
2022-09-28T10:33:05.641Z,2.30
2022-09-28T10:38:18.197Z,1.50
2022-09-28T10:43:29.219Z,4.60
2022-09-28T10:48:49.120Z,3.38
2022-09-28T10:54:02.393Z,2.72
2022-09-28T10:59:26.152Z,1.60
2022-09-28T11:04:32.377Z,1.15
2022-09-28T11:09:43.266Z,1.63
2022-09-28T11:14:53.064Z,1.23
2022-09-28T11:19:59.322Z,1.42
2022-09-28T11:25:23.857Z,2.42
2022-09-28T11:30:37.817Z,1.00
2022-09-28T11:35:50.409Z,1.48
2022-09-28T11:41:07.825Z,2.25
2022-09-28T11:46:19.217Z,0.95
2022-09-28T11:51:28.100Z,1.13
2022-09-28T11:56:38.120Z,1.50
2022-09-28T12:01:49.374Z,3.22
2022-09-28T12:06:56.302Z,1.58
2022-09-28T12:17:20.146Z,1.50
2022-09-28T12:22:29.063Z,2.65
2022-09-28T12:27:40.401Z,2.17
2022-09-28T12:32:51.441Z,2.85
2022-09-28T12:38:09.182Z,1.23
2022-09-28T12:43:34.386Z,1.58
2022-09-28T12:55:03.105Z,4.63
2022-09-28T13:00:11.605Z,2.00
2022-09-28T13:05:40.423Z,4.32
2022-09-28T13:10:49.611Z,3.05
2022-09-28T13:15:57.899Z,3.13
2022-09-28T13:21:29.443Z,3.50
2022-09-28T13:26:38.579Z,2.75
2022-09-28T13:31:50.799Z,3.25
2022-09-28T13:37:24.379Z,3.17
2022-09-28T13:43:00.103Z,4.07
2022-09-28T13:48:26.144Z,1.80
2022-09-28T13:53:46.050Z,3.33
2022-09-28T13:58:53.532Z,2.40
2022-09-28T14:04:05.515Z,2.78
2022-09-28T14:09:29.331Z,1.67
2022-09-28T14:14:52.963Z,2.28
2022-09-28T14:20:02.765Z,3.60
2022-09-28T14:25:17.468Z,2.63
2022-09-28T14:30:25.919Z,6.40
2022-09-28T14:35:36.398Z,3.00
2022-09-28T14:41:13.924Z,3.10
2022-09-28T14:46:37.066Z,3.47
2022-09-28T14:52:04.174Z,6.53
2022-09-28T14:57:20.134Z,5.07
2022-09-28T15:02:31.352Z,6.88
2022-09-28T15:07:51.892Z,12.65
2022-09-28T15:13:01.548Z,10.45
2022-09-28T15:18:47.651Z,12.65
2022-09-28T15:23:52.844Z,8.35
2022-09-28T15:29:03.204Z,6.57
2022-09-28T15:34:20.608Z,5.22
2022-09-28T15:39:30.745Z,6.45
2022-09-28T15:44:39.226Z,9.85
2022-09-28T15:49:47.680Z,7.75
2022-09-28T15:54:52.914Z,8.13
2022-09-28T16:00:01.012Z,16.25
2022-09-28T16:05:06.592Z,22.42
2022-09-28T16:10:37.907Z,10.43
2022-09-28T16:15:45.877Z,6.70
2022-09-28T16:20:52.798Z,9.80
2022-09-28T16:26:00.935Z,10.43
2022-09-28T16:31:10.129Z,10.88
2022-09-28T16:36:17.173Z,10.80
2022-09-28T16:41:25.016Z,7.95
2022-09-28T16:46:37.701Z,6.88
2022-09-28T16:51:43.014Z,9.15
2022-09-28T16:56:48.129Z,7.40
2022-09-28T17:01:56.842Z,9.48
2022-09-28T17:07:02.223Z,7.00
2022-09-28T17:12:13.375Z,8.27
2022-09-28T17:17:21.388Z,8.20
2022-09-28T17:22:26.582Z,11.88
2022-09-28T17:27:32.572Z,9.38
2022-09-28T17:32:44.986Z,15.15
2022-09-28T17:37:51.245Z,12.43
2022-09-28T17:42:57.264Z,7.25
2022-09-28T17:48:05.511Z,10.75
2022-09-28T17:53:10.544Z,15.18
2022-09-28T17:58:19.780Z,44.55
2022-09-28T18:03:28.751Z,17.40
2022-09-28T18:08:40.110Z,10.38
2022-09-28T18:13:46.312Z,17.15
2022-09-28T18:18:54.263Z,23.35
2022-09-28T18:23:59.477Z,13.82
2022-09-28T18:29:04.561Z,11.48
2022-09-28T18:34:13.809Z,9.88
2022-09-28T18:39:18.986Z,9.52
2022-09-28T18:44:24.228Z,10.77
2022-09-28T18:49:33.847Z,14.77
2022-09-28T18:54:42.100Z,10.15
2022-09-28T18:59:48.226Z,12.10
2022-09-28T19:04:56.130Z,11.10
2022-09-28T19:10:01.326Z,9.90
2022-09-28T19:15:06.755Z,12.05
2022-09-28T19:20:14.601Z,12.02
2022-09-28T19:25:19.735Z,10.10
2022-09-28T19:30:24.762Z,12.50
2022-09-28T19:35:32.464Z,13.40
2022-09-28T19:40:39.974Z,13.77
2022-09-28T19:45:45.113Z,13.15
2022-09-28T19:51:00.183Z,11.98
2022-09-28T19:56:06.432Z,11.55
2022-09-28T20:01:11.371Z,13.40
2022-09-28T20:06:19.061Z,15.10
2022-09-28T20:11:25.357Z,16.95
2022-09-28T20:16:31.262Z,18.45
2022-09-28T20:21:42.400Z,14.75
2022-09-28T20:26:49.901Z,12.10
2022-09-28T20:32:04.255Z,15.13
2022-09-28T20:37:20.202Z,14.30
2022-09-28T20:42:38.650Z,15.10
2022-09-28T20:48:13.163Z,15.13
2022-09-28T20:53:33.050Z,15.32
2022-09-28T21:03:59.486Z,19.48
2022-09-28T21:14:37.224Z,13.80
2022-09-28T21:19:42.548Z,13.73
2022-09-28T21:24:50.648Z,13.60
2022-09-28T21:29:55.973Z,12.18
2022-09-28T21:35:01.290Z,14.68
2022-09-28T21:40:10.931Z,12.80
2022-09-28T21:45:17.643Z,11.13
2022-09-28T21:50:25.057Z,12.68
2022-09-28T21:55:32.890Z,12.57
2022-09-28T22:00:41.076Z,11.15
